Time;durP1;ratioP1;P1;durP2;ratioP2;P2;SDS_P1;SDS_P2;PMS_P1;PMS_P2;Temp;Humidity;BMP_temperature;BMP_pressure;BME280_temperature;BME280_humidity;BME280_pressure;Samples;Min_cycle;Max_cycle;Signal;HPM_P1;HPM_P2
2022/04/16 00:00:55;;;;;;;1.20;1.20;;;;;;;9.38;61.75;99639.94;4103511;28;20640;-57
2022/04/16 00:02:57;;;;;;;1.30;1.20;;;;;;;9.38;62.05;99636.38;4110071;28;20266;-56
2022/04/16 00:04:59;;;;;;;1.35;1.25;;;;;;;9.35;62.40;99636.81;4112454;28;20226;-57
2022/04/16 00:07:00;;;;;;;1.00;1.00;;;;;;;9.32;62.74;99631.75;4103660;28;20207;-57
2022/04/16 00:09:03;;;;;;;1.48;1.33;;;;;;;9.33;62.46;99627.97;4105500;28;20200;-57
2022/04/16 00:11:06;;;;;;;1.80;1.70;;;;;;;9.33;62.53;99634.28;4105515;28;20665;-55
2022/04/16 00:13:07;;;;;;;1.52;1.42;;;;;;;9.29;62.28;99630.28;4112567;28;20898;-56
2022/04/16 00:15:09;;;;;;;1.48;1.38;;;;;;;9.31;62.41;99630.09;4104655;28;20277;-56
2022/04/16 00:17:11;;;;;;;1.30;1.20;;;;;;;9.30;62.53;99628.41;4109078;28;20351;-55
2022/04/16 00:19:13;;;;;;;1.50;1.40;;;;;;;9.29;62.27;99627.56;4112757;28;20282;-56
2022/04/16 00:21:14;;;;;;;1.30;1.30;;;;;;;9.29;62.62;99633.03;4105805;28;20207;-56
2022/04/16 00:23:19;;;;;;;1.30;1.20;;;;;;;9.39;61.86;99638.03;4097937;29;20282;-56
2022/04/16 00:25:21;;;;;;;1.20;1.20;;;;;;;9.31;62.08;99630.09;4122641;28;20223;-56
2022/04/16 00:27:24;;;;;;;1.10;1.10;;;;;;;9.31;62.18;99621.88;4125343;28;20250;-56
2022/04/16 00:29:26;;;;;;;1.65;1.55;;;;;;;9.27;62.06;99623.38;4112599;28;20207;-55
2022/04/16 00:31:29;;;;;;;1.40;1.30;;;;;;;9.29;62.35;99622.09;4108782;28;20650;-56
2022/04/16 00:33:33;;;;;;;1.30;1.20;;;;;;;9.18;62.78;99624.66;4109339;28;20269;-56
2022/04/16 00:35:35;;;;;;;1.55;1.40;;;;;;;9.18;62.90;99630.13;4111117;28;20286;-56
2022/04/16 00:37:37;;;;;;;1.23;1.15;;;;;;;9.18;62.40;99630.13;4112801;28;20607;-56
2022/04/16 00:39:38;;;;;;;1.48;1.38;;;;;;;9.14;62.73;99634.34;4106118;28;20215;-56
2022/04/16 00:41:40;;;;;;;1.50;1.40;;;;;;;9.07;62.45;99634.34;4103648;28;20231;-56
2022/04/16 00:43:42;;;;;;;1.45;1.35;;;;;;;9.07;63.03;99622.56;4103839;28;20246;-56
2022/04/16 00:45:44;;;;;;;1.52;1.30;;;;;;;9.02;62.75;99634.13;4102991;28;20215;-56
2022/04/16 00:47:48;;;;;;;1.27;1.20;;;;;;;9.00;63.21;99629.94;4110800;28;20217;-56
2022/04/16 00:49:50;;;;;;;1.40;1.30;;;;;;;8.94;63.08;99633.56;4103097;28;20279;-56
2022/04/16 00:51:52;;;;;;;1.17;1.17;;;;;;;8.90;63.01;99629.56;4104397;28;20230;-56
2022/04/16 00:53:54;;;;;;;1.25;1.25;;;;;;;8.84;63.24;99633.13;4103733;28;20218;-56
2022/04/16 00:55:58;;;;;;;1.40;1.30;;;;;;;8.80;63.48;99629.13;4119826;28;20321;-56
2022/04/16 00:58:00;;;;;;;1.67;1.58;;;;;;;8.78;63.54;99623.06;4104338;28;20215;-56
2022/04/16 01:00:03;;;;;;;1.42;1.33;;;;;;;8.74;63.67;99627.28;4118132;28;20218;-57
2022/04/16 01:02:08;;;;;;;1.90;1.80;;;;;;;8.76;63.40;99633.34;4103595;28;20210;-56
2022/04/16 01:04:10;;;;;;;1.65;1.55;;;;;;;8.70;63.88;99628.72;4102807;28;20226;-57
2022/04/16 01:06:14;;;;;;;0.93;0.93;;;;;;;8.71;63.29;99630.41;4102621;28;20317;-56
2022/04/16 01:08:19;;;;;;;2.75;1.48;;;;;;;8.69;63.57;99636.06;4104704;28;20214;-56
2022/04/16 01:10:21;;;;;;;1.55;1.45;;;;;;;8.68;63.49;99628.94;4102689;28;20231;-57
2022/04/16 01:12:23;;;;;;;1.60;1.50;;;;;;;8.67;63.86;99631.88;4117898;28;20669;-57
2022/04/16 01:14:25;;;;;;;1.38;1.27;;;;;;;8.62;64.02;99639.88;4105896;28;20254;-56
2022/04/16 01:16:30;;;;;;;1.50;1.40;;;;;;;8.59;63.87;99632.09;4105567;28;20307;-56
2022/04/16 01:18:33;;;;;;;1.50;1.40;;;;;;;8.56;63.54;99629.78;4104773;28;20729;-57
2022/04/16 01:20:38;;;;;;;1.70;1.60;;;;;;;8.50;63.90;99641.53;4101413;28;20206;-57
2022/04/16 01:22:40;;;;;;;1.10;1.10;;;;;;;8.44;63.72;99642.38;4120492;28;20619;-57
2022/04/16 01:24:43;;;;;;;1.15;1.10;;;;;;;8.42;64.06;99633.56;4121511;28;20278;-56
2022/04/16 01:26:46;;;;;;;1.42;1.42;;;;;;;8.40;64.08;99633.78;4119703;28;20217;-57
2022/04/16 01:28:48;;;;;;;1.67;1.58;;;;;;;8.44;64.10;99642.38;4109972;28;20203;-56
2022/04/16 01:30:50;;;;;;;2.47;1.42;;;;;;;8.47;64.39;99641.94;4103171;28;20230;-56
2022/04/16 01:32:52;;;;;;;2.05;1.40;;;;;;;8.44;63.48;99636.91;4104640;28;20270;-57
2022/04/16 01:34:54;;;;;;;1.25;1.15;;;;;;;8.38;64.03;99637.75;4119527;28;20261;-57
2022/04/16 01:36:58;;;;;;;2.13;2.03;;;;;;;8.34;64.19;99637.31;4103316;28;20204;-57
2022/04/16 01:39:00;;;;;;;1.73;1.63;;;;;;;8.28;63.74;99637.34;4104128;28;20222;-56
2022/04/16 01:41:01;;;;;;;1.15;1.15;;;;;;;8.23;63.86;99634.38;4104610;28;20199;-57
2022/04/16 01:43:03;;;;;;;1.00;1.00;;;;;;;8.21;64.36;99631.84;4107449;28;20211;-56
2022/04/16 01:45:09;;;;;;;1.90;1.67;;;;;;;8.15;64.35;99635.38;4105354;28;20246;-57
2022/04/16 01:47:10;;;;;;;0.90;0.90;;;;;;;8.12;64.70;99632.22;4107160;28;20214;-57
2022/04/16 01:49:12;;;;;;;1.10;1.10;;;;;;;8.07;64.51;99634.72;4104673;28;20249;-57
2022/04/16 01:51:16;;;;;;;1.75;1.40;;;;;;;8.00;64.72;99633.88;4119805;28;20243;-57
2022/04/16 01:53:18;;;;;;;1.20;1.13;;;;;;;7.97;64.72;99629.69;4105140;28;20250;-58
2022/04/16 01:55:19;;;;;;;1.48;1.38;;;;;;;7.98;65.02;99638.69;4104361;28;20283;-57
2022/04/16 01:57:22;;;;;;;1.58;1.23;;;;;;;7.96;64.96;99644.34;4118693;28;20258;-57
2022/04/16 01:59:25;;;;;;;1.40;1.33;;;;;;;7.94;64.89;99635.56;4107651;28;20289;-57
2022/04/16 02:01:26;;;;;;;1.30;1.30;;;;;;;7.95;64.83;99642.66;4107500;28;20202;-57
2022/04/16 02:03:29;;;;;;;1.48;1.38;;;;;;;7.91;65.43;99629.66;4119384;28;20218;-57
2022/04/16 02:05:31;;;;;;;1.73;1.48;;;;;;;7.83;65.53;99624.41;4122088;28;20248;-57
2022/04/16 02:07:32;;;;;;;1.40;1.38;;;;;;;7.82;65.76;99626.28;4103006;28;20209;-57
2022/04/16 02:09:34;;;;;;;1.55;1.45;;;;;;;7.81;64.90;99629.25;4118374;28;20281;-57
2022/04/16 02:11:36;;;;;;;1.65;1.55;;;;;;;7.74;65.50;99623.75;4104342;28;20313;-58
2022/04/16 02:13:38;;;;;;;1.65;1.55;;;;;;;7.70;65.36;99624.38;4106945;28;20230;-58
2022/04/16 02:15:40;;;;;;;1.50;1.40;;;;;;;7.66;65.27;99626.66;4120750;28;20210;-55
2022/04/16 02:17:42;;;;;;;1.33;1.33;;;;;;;7.67;65.74;99630.22;4106817;28;20302;-56
2022/04/16 02:19:44;;;;;;;9.60;1.35;;;;;;;7.62;65.99;99632.72;4116409;28;20206;-56
2022/04/16 02:21:46;;;;;;;1.50;1.33;;;;;;;7.60;65.88;99635.66;4102955;28;20289;-58
2022/04/16 02:23:51;;;;;;;1.67;1.35;;;;;;;7.59;65.58;99628.53;4102232;28;20226;-56
2022/04/16 02:25:53;;;;;;;1.58;1.48;;;;;;;7.54;66.40;99627.44;4103247;28;20881;-58
2022/04/16 02:27:55;;;;;;;1.60;1.50;;;;;;;7.53;65.77;99636.66;4102719;28;20200;-56
2022/04/16 02:29:57;;;;;;;1.25;1.25;;;;;;;7.55;65.83;99637.31;4093680;28;20208;-57
2022/04/16 02:31:58;;;;;;;1.60;1.50;;;;;;;7.54;65.78;99639.19;4118742;28;20233;-56
2022/04/16 02:34:00;;;;;;;1.98;1.85;;;;;;;7.53;65.47;99632.06;4104154;28;20285;-57
2022/04/16 02:36:04;;;;;;;1.95;1.85;;;;;;;7.53;65.21;99636.66;4102149;28;20229;-56
2022/04/16 02:38:06;;;;;;;1.75;1.42;;;;;;;7.52;65.40;99635.84;4104946;28;20203;-57
2022/04/16 02:40:08;;;;;;;1.65;1.55;;;;;;;7.48;65.66;99633.72;4117693;28;20669;-57
2022/04/16 02:42:10;;;;;;;1.90;1.80;;;;;;;7.47;65.17;99632.88;4137328;28;20415;-56
2022/04/16 02:47:05;;;;;;;1.60;1.50;;;;;;;7.39;65.32;99626.75;4108432;28;20234;-58
2022/04/16 02:48:54;;;;;;;1.83;1.73;;;;;;;7.27;65.68;99631.94;4104621;28;21036;-56
2022/04/16 02:50:56;;;;;;;1.73;1.63;;;;;;;7.25;66.29;99627.75;4119855;28;20257;-58
2022/04/16 02:52:58;;;;;;;1.65;1.55;;;;;;;7.20;65.53;99630.22;4118746;28;20234;-57
2022/04/16 02:55:00;;;;;;;1.88;1.77;;;;;;;7.18;65.73;99637.75;4103554;28;20368;-57
2022/04/16 02:57:03;;;;;;;1.45;1.35;;;;;;;7.14;65.99;99639.19;4102392;28;20800;-57
2022/04/16 02:59:05;;;;;;;2.00;1.90;;;;;;;7.10;66.36;99641.47;4088118;28;20251;-58
2022/04/16 03:01:06;;;;;;;1.98;1.88;;;;;;;7.09;66.37;99641.69;4106677;28;20210;-57
2022/04/16 03:03:08;;;;;;;1.63;1.52;;;;;;;7.09;66.18;99639.78;4118180;28;20206;-56
2022/04/16 03:05:11;;;;;;;1.60;1.50;;;;;;;7.14;66.23;99642.75;4104176;28;20294;-57
2022/04/16 03:07:12;;;;;;;1.00;1.00;;;;;;;7.11;66.41;99636.88;4103300;28;20226;-57
2022/04/16 03:09:14;;;;;;;1.75;1.65;;;;;;;7.13;66.01;99640.22;4103414;28;20320;-56
2022/04/16 03:11:16;;;;;;;1.45;1.42;;;;;;;7.09;65.63;99644.41;4087725;29;20211;-57
2022/04/16 03:13:18;;;;;;;1.60;1.50;;;;;;;7.03;65.74;99648.75;4107322;28;20672;-57
2022/04/16 03:17:41;;;;;;;1.15;1.15;;;;;;;6.91;65.87;99647.66;4106544;28;20209;-57
2022/04/16 03:19:45;;;;;;;1.90;1.80;;;;;;;6.94;65.94;99649.09;4109581;28;20253;-57
2022/04/16 03:21:46;;;;;;;1.88;1.52;;;;;;;6.96;66.24;99656.03;4105090;28;20227;-57
2022/04/16 03:23:48;;;;;;;1.40;1.30;;;;;;;6.94;66.26;99658.13;4104621;28;20210;-56
2022/04/16 03:25:50;;;;;;;0.95;0.95;;;;;;;6.94;65.82;99658.13;4104867;28;20258;-57
2022/04/16 03:27:52;;;;;;;1.10;1.10;;;;;;;6.93;66.01;99661.88;4122420;28;20203;-57
2022/04/16 03:29:54;;;;;;;1.60;1.50;;;;;;;6.93;66.37;99661.88;4112160;28;20211;-56
2022/04/16 03:31:56;;;;;;;1.63;1.52;;;;;;;6.96;66.58;99655.22;4121084;28;20210;-57
2022/04/16 03:33:57;;;;;;;1.48;1.38;;;;;;;6.99;66.42;99660.25;4122395;28;20213;-57
2022/04/16 03:35:59;;;;;;;1.45;1.35;;;;;;;6.99;66.09;99660.25;4123187;28;20277;-56
2022/04/16 03:38:01;;;;;;;1.58;1.48;;;;;;;6.96;66.31;99655.22;4121451;28;20336;-56
2022/04/16 03:40:04;;;;;;;1.48;1.30;;;;;;;6.97;66.20;99662.34;4106761;28;20203;-58
2022/04/16 03:42:05;;;;;;;2.40;1.60;;;;;;;6.95;66.78;99658.97;4106912;28;20230;-57
2022/04/16 03:44:07;;;;;;;1.58;1.48;;;;;;;6.93;66.47;99658.31;4106038;28;20243;-58
2022/04/16 03:46:09;;;;;;;1.20;1.20;;;;;;;6.92;66.54;99654.78;4106329;28;20301;-58
2022/04/16 03:48:10;;;;;;;1.55;1.45;;;;;;;6.93;66.80;99661.03;4122305;28;20304;-57
2022/04/16 03:50:12;;;;;;;1.73;1.63;;;;;;;6.94;66.72;99652.69;4109715;28;20218;-57
2022/04/16 03:52:14;;;;;;;1.70;1.60;;;;;;;6.97;66.84;99654.16;4121770;28;20226;-57
2022/04/16 04:01:16;;;;;;;2.00;1.90;;;;;;;6.87;66.75;99661.81;4105863;28;20218;-58
2022/04/16 04:03:20;;;;;;;7.15;2.05;;;;;;;6.85;66.62;99658.47;4111363;28;20210;-57
2022/04/16 04:05:23;;;;;;;2.30;2.10;;;;;;;6.82;66.57;99658.88;4120547;28;20233;-56
2022/04/16 04:07:25;;;;;;;2.53;2.33;;;;;;;6.76;66.62;99659.69;4106115;28;20207;-57
2022/04/16 04:09:27;;;;;;;1.85;1.75;;;;;;;6.71;66.81;99656.69;4119472;28;20207;-56
2022/04/16 04:11:28;;;;;;;1.35;1.35;;;;;;;6.70;66.52;99665.91;4105907;28;20234;-57
2022/04/16 04:13:31;;;;;;;1.60;1.50;;;;;;;6.71;66.68;99659.41;4123116;28;20238;-57
2022/04/16 04:15:33;;;;;;;1.33;1.30;;;;;;;6.69;67.12;99666.94;4092775;28;20242;-57
2022/04/16 04:17:34;;;;;;;1.63;1.52;;;;;;;6.66;66.24;99670.91;4107804;28;20207;-57
2022/04/16 04:19:38;;;;;;;1.90;1.80;;;;;;;6.65;66.75;99671.09;4104217;28;20338;-57
2022/04/16 04:21:40;;;;;;;1.80;1.70;;;;;;;6.62;66.44;99668.78;4104086;28;20262;-57
2022/04/16 04:23:41;;;;;;;1.83;1.73;;;;;;;6.59;66.95;99675.44;4105221;28;20223;-57
2022/04/16 04:25:43;;;;;;;1.50;1.40;;;;;;;6.60;66.73;99682.56;4105866;28;20199;-57
2022/04/16 04:27:45;;;;;;;1.42;1.33;;;;;;;6.60;67.04;99684.41;4105393;28;20700;-57
2022/04/16 04:29:46;;;;;;;1.85;1.75;;;;;;;6.60;66.88;99684.41;4104961;28;20207;-57
2022/04/16 04:31:48;;;;;;;1.45;1.35;;;;;;;6.62;66.69;99685.09;4103956;28;20208;-57
2022/04/16 04:33:50;;;;;;;1.75;1.65;;;;;;;6.64;66.95;99685.72;4105460;28;20221;-57
2022/04/16 04:35:51;;;;;;;2.25;2.15;;;;;;;6.64;66.71;99681.13;4111315;28;20685;-56
2022/04/16 04:37:54;;;;;;;2.10;2.00;;;;;;;6.61;66.86;99683.38;4121438;28;20687;-57
2022/04/16 04:39:56;;;;;;;1.40;1.38;;;;;;;6.62;67.33;99685.09;4141533;28;20663;-57
2022/04/16 04:41:57;;;;;;;1.92;1.60;;;;;;;6.61;67.52;99683.38;4112157;28;20679;-57
2022/04/16 04:43:59;;;;;;;1.67;1.58;;;;;;;6.63;67.06;99682.16;4105784;28;20612;-57
2022/04/16 04:46:01;;;;;;;2.42;1.95;;;;;;;6.63;67.36;99681.31;4108398;28;20211;-56
2022/04/16 04:48:03;;;;;;;1.75;1.63;;;;;;;6.65;67.89;99680.09;4120582;28;20214;-57
2022/04/16 04:50:06;;;;;;;1.42;1.33;;;;;;;6.64;67.62;99683.00;4106335;28;21102;-57
2022/04/16 04:52:07;;;;;;;1.50;1.40;;;;;;;6.66;67.61;99678.19;4105345;28;20219;-56
2022/04/16 04:54:09;;;;;;;2.00;1.90;;;;;;;6.66;67.32;99680.91;4106382;28;20286;-57
2022/04/16 04:56:11;;;;;;;2.40;1.98;;;;;;;6.68;67.50;99684.31;4108943;28;20278;-56
2022/04/16 04:58:12;;;;;;;2.13;2.03;;;;;;;6.68;67.39;99692.47;4111976;28;20210;-56
2022/04/16 05:00:14;;;;;;;1.23;1.20;;;;;;;6.73;67.56;99692.69;4088936;28;20234;-57
2022/04/16 05:02:16;;;;;;;1.65;1.55;;;;;;;6.77;67.74;99694.00;4091561;28;20228;-57
2022/04/16 05:04:18;;;;;;;1.98;1.88;;;;;;;6.77;67.74;99689.38;4103355;28;20239;-56
2022/04/16 05:06:20;;;;;;;1.60;1.50;;;;;;;6.85;67.62;99688.41;4105018;28;20265;-56
2022/04/16 05:08:21;;;;;;;1.98;1.45;;;;;;;6.85;67.56;99680.22;4102903;28;20553;-57
2022/04/16 05:10:23;;;;;;;1.65;1.55;;;;;;;6.78;67.89;99680.19;4104645;28;20207;-57
2022/04/16 05:12:25;;;;;;;1.60;1.50;;;;;;;6.76;67.38;99692.31;4112377;28;20203;-56
2022/04/16 05:14:27;;;;;;;1.67;1.58;;;;;;;6.74;67.84;99691.66;4111787;28;20219;-57
2022/04/16 05:16:28;;;;;;;1.60;1.50;;;;;;;6.75;67.82;99685.19;4105965;28;20513;-57
2022/04/16 05:18:30;;;;;;;1.52;1.42;;;;;;;6.75;68.05;99677.84;4103299;28;20222;-57
2022/04/16 05:20:32;;;;;;;1.70;1.60;;;;;;;6.77;67.47;99681.22;4103982;28;20203;-58
2022/04/16 05:22:33;;;;;;;2.10;2.00;;;;;;;6.83;67.84;99687.75;4105285;28;21147;-57
2022/04/16 05:24:35;;;;;;;1.88;1.77;;;;;;;6.87;68.00;99689.03;4107012;28;20378;-57
2022/04/16 05:26:38;;;;;;;1.95;1.83;;;;;;;6.92;67.98;99683.84;4103109;28;20200;-57
2022/04/16 05:28:40;;;;;;;2.42;2.33;;;;;;;7.05;67.86;99689.38;4104162;28;20259;-57
2022/04/16 05:30:54;;;;;;;2.28;2.08;;;;;;;7.11;68.15;99696.75;4106049;28;20257;-57
2022/04/16 05:33:02;;;;;;;2.95;2.75;;;;;;;7.22;68.40;99696.22;4120258;28;20218;-58
2022/04/16 05:35:05;;;;;;;2.63;1.98;;;;;;;7.38;68.97;99698.59;4121990;28;20753;-57
2022/04/16 05:37:06;;;;;;;2.13;1.65;;;;;;;7.50;69.32;99697.00;4104558;28;20282;-56
2022/04/16 05:39:08;;;;;;;3.33;3.05;;;;;;;7.60;69.49;99703.75;4100427;28;20242;-57
2022/04/16 05:41:10;;;;;;;2.97;2.70;;;;;;;7.74;69.10;99699.19;4104460;28;20313;-57
2022/04/16 05:43:12;;;;;;;1.65;1.55;;;;;;;7.79;69.06;99704.88;4103453;28;20234;-57
2022/04/16 05:45:16;;;;;;;2.63;2.42;;;;;;;7.85;69.81;99706.78;4101503;28;20255;-56
2022/04/16 05:47:18;;;;;;;3.15;2.90;;;;;;;7.98;70.67;99701.38;4111750;28;20221;-57
2022/04/16 05:49:19;;;;;;;2.88;2.67;;;;;;;8.12;71.09;99705.84;4102873;28;20255;-56
2022/04/16 05:51:22;;;;;;;3.30;3.05;;;;;;;8.35;70.56;99714.53;4121997;28;20936;-56
2022/04/16 05:53:24;;;;;;;3.45;3.25;;;;;;;8.59;70.28;99709.31;4103068;28;20203;-57
2022/04/16 05:55:25;;;;;;;3.75;3.40;;;;;;;8.89;70.26;99715.22;4105747;28;20269;-57
2022/04/16 05:57:27;;;;;;;3.90;3.60;;;;;;;8.99;69.21;99712.91;4105560;28;20199;-57
2022/04/16 05:59:29;;;;;;;3.38;3.05;;;;;;;8.92;69.54;99723.84;4116783;28;20241;-56
2022/04/16 06:01:31;;;;;;;3.85;3.55;;;;;;;8.95;69.43;99728.84;4110190;28;20206;-56
2022/04/16 06:03:34;;;;;;;2.65;2.45;;;;;;;8.94;69.52;99716.25;4105283;28;20309;-56
2022/04/16 06:05:36;;;;;;;3.30;2.90;;;;;;;9.10;69.55;99725.91;4103916;28;20265;-57
2022/04/16 06:07:38;;;;;;;3.28;3.05;;;;;;;9.10;69.25;99731.38;4120677;28;20632;-56
2022/04/16 06:09:39;;;;;;;3.70;3.22;;;;;;;9.18;68.96;99728.44;4108263;28;20211;-57
2022/04/16 06:11:42;;;;;;;3.83;3.53;;;;;;;9.11;69.50;99728.44;4103488;28;20203;-56
2022/04/16 06:13:44;;;;;;;6.65;3.70;;;;;;;9.23;69.40;99717.72;4088273;28;20207;-57
2022/04/16 06:15:46;;;;;;;3.25;2.78;;;;;;;9.14;69.78;99727.19;4105520;28;20848;-56
2022/04/16 06:17:47;;;;;;;3.92;3.15;;;;;;;9.03;70.07;99730.53;4102265;28;20562;-58
2022/04/16 06:19:49;;;;;;;3.95;3.08;;;;;;;9.06;70.14;99735.56;4111538;28;21142;-58
2022/04/16 06:21:54;;;;;;;3.40;3.08;;;;;;;9.18;69.47;99733.91;4109763;28;20302;-57
2022/04/16 06:23:57;;;;;;;3.45;3.15;;;;;;;9.28;69.71;99742.50;4101837;28;20270;-57
2022/04/16 06:25:59;;;;;;;2.95;2.65;;;;;;;9.34;69.42;99738.94;4106687;28;20756;-57
2022/04/16 06:28:01;;;;;;;3.58;3.28;;;;;;;9.42;68.97;99738.72;4119969;28;20277;-57
2022/04/16 06:30:04;;;;;;;3.22;2.92;;;;;;;9.29;69.43;99746.91;4106591;28;20261;-57
2022/04/16 06:32:07;;;;;;;3.47;3.17;;;;;;;9.57;68.85;99751.09;4109463;28;20282;-57
2022/04/16 06:34:09;;;;;;;3.40;3.08;;;;;;;9.60;68.51;99755.25;4109925;28;20652;-57
2022/04/16 06:36:10;;;;;;;3.65;3.22;;;;;;;9.64;68.65;99751.06;4119425;28;20266;-57
2022/04/16 06:38:12;;;;;;;3.55;3.25;;;;;;;9.49;69.03;99748.56;4111610;28;20693;-56
2022/04/16 06:40:14;;;;;;;3.60;3.30;;;;;;;9.55;69.11;99752.34;4120605;28;20206;-57
2022/04/16 06:42:15;;;;;;;2.53;2.35;;;;;;;9.69;68.61;99754.81;4117300;28;20234;-59
2022/04/16 06:44:17;;;;;;;3.75;3.10;;;;;;;9.60;68.54;99755.25;4108598;28;20226;-58
2022/04/16 06:46:19;;;;;;;2.40;2.22;;;;;;;9.70;68.02;99755.66;4105385;28;20218;-56
2022/04/16 06:48:21;;;;;;;2.70;2.40;;;;;;;9.81;68.13;99753.09;4100434;28;20278;-56
2022/04/16 06:50:23;;;;;;;3.78;3.47;;;;;;;9.58;68.87;99757.38;4103522;28;20202;-56
2022/04/16 06:52:25;;;;;;;2.88;2.63;;;;;;;9.77;68.47;99753.75;4101192;28;20210;-57
2022/04/16 06:54:27;;;;;;;2.80;2.58;;;;;;;9.67;68.60;99756.09;4106466;28;20313;-56
2022/04/16 06:56:29;;;;;;;3.13;2.83;;;;;;;9.78;68.02;99761.75;4103833;28;20230;-57
2022/04/16 06:58:31;;;;;;;3.83;3.47;;;;;;;9.84;67.92;99762.78;4120755;28;20218;-56
2022/04/16 07:00:33;;;;;;;2.95;2.75;;;;;;;9.91;68.00;99763.59;4109659;28;20261;-57
2022/04/16 07:02:36;;;;;;;2.40;2.20;;;;;;;9.98;67.67;99758.94;4102575;28;20237;-56
2022/04/16 07:04:38;;;;;;;3.75;2.70;;;;;;;10.08;66.61;99770.31;4118584;28;20362;-57
2022/04/16 07:06:42;;;;;;;3.42;3.13;;;;;;;10.16;66.68;99767.31;4137238;28;20206;-57
2022/04/16 07:08:44;;;;;;;2.45;2.13;;;;;;;10.07;66.94;99763.97;4118784;28;20700;-56
2022/04/16 07:10:46;;;;;;;2.22;2.05;;;;;;;10.05;66.76;99763.38;4090382;28;20203;-56
2022/04/16 07:12:47;;;;;;;2.80;2.60;;;;;;;10.18;66.77;99765.19;4118129;28;20194;-56
2022/04/16 07:14:50;;;;;;;5.90;2.97;;;;;;;10.26;66.45;99773.16;4104382;28;20692;-56
2022/04/16 07:16:54;;;;;;;2.83;2.45;;;;;;;10.17;66.49;99763.53;4104076;28;20689;-56
2022/04/16 07:18:56;;;;;;;2.63;2.20;;;;;;;10.20;66.42;99774.03;4119334;28;20246;-56
2022/04/16 07:20:57;;;;;;;2.35;2.15;;;;;;;10.10;66.58;99763.56;4105917;28;20254;-55
2022/04/16 07:23:01;;;;;;;2.53;2.33;;;;;;;10.22;66.33;99769.19;4105957;28;20300;-57
2022/04/16 07:25:07;;;;;;;3.08;2.78;;;;;;;10.18;65.84;99770.66;4102614;28;20373;-56
2022/04/16 07:27:08;;;;;;;4.40;2.58;;;;;;;10.29;66.14;99778.22;4110211;28;20206;-56
2022/04/16 07:29:10;;;;;;;2.05;1.95;;;;;;;10.39;66.04;99773.94;4111055;28;20226;-57
2022/04/16 07:31:12;;;;;;;3.05;2.75;;;;;;;10.33;65.76;99777.56;4104875;28;20262;-56
2022/04/16 07:33:13;;;;;;;2.92;2.38;;;;;;;10.41;66.18;99785.50;4105337;28;21104;-57
2022/04/16 07:35:15;;;;;;;2.28;2.05;;;;;;;10.42;65.93;99783.63;4108637;28;20223;-57
2022/04/16 07:37:17;;;;;;;2.92;2.65;;;;;;;10.60;65.38;99789.19;4108650;28;20274;-56
2022/04/16 07:39:19;;;;;;;2.95;2.55;;;;;;;10.75;65.43;99785.09;4105164;28;20247;-55
2022/04/16 07:41:21;;;;;;;3.83;2.22;;;;;;;10.68;65.62;99783.47;4102285;28;20242;-55
2022/04/16 07:43:22;;;;;;;3.40;3.10;;;;;;;10.76;65.31;99781.28;4105851;28;20283;-54
2022/04/16 07:45:24;;;;;;;2.63;2.42;;;;;;;10.94;65.04;99779.50;4110927;28;20227;-57
2022/04/16 07:47:26;;;;;;;2.47;2.28;;;;;;;10.96;65.00;99787.47;4110946;28;20293;-57
2022/04/16 07:49:28;;;;;;;2.88;2.60;;;;;;;10.95;64.93;99781.19;4107150;28;20673;-57
2022/04/16 07:51:29;;;;;;;2.78;2.58;;;;;;;10.81;65.06;99777.94;4118750;28;20723;-56
2022/04/16 07:53:31;;;;;;;3.20;2.80;;;;;;;10.77;65.03;99786.56;4122619;28;20210;-57
2022/04/16 07:55:34;;;;;;;3.30;1.95;;;;;;;10.72;64.68;99784.69;4104024;28;20712;-58
2022/04/16 07:57:35;;;;;;;2.67;2.47;;;;;;;10.74;64.82;99788.09;4130835;28;20343;-56
2022/04/16 07:59:37;;;;;;;2.55;2.35;;;;;;;10.73;65.25;99794.59;4105176;28;20202;-55
2022/04/16 08:01:39;;;;;;;2.50;2.30;;;;;;;10.89;64.92;99787.53;4105845;28;20203;-57
2022/04/16 08:03:41;;;;;;;2.10;1.95;;;;;;;10.98;64.05;99796.34;4110985;28;20217;-57
2022/04/16 08:05:43;;;;;;;1.75;1.63;;;;;;;11.02;64.64;99792.94;4119064;28;20202;-57
2022/04/16 08:07:44;;;;;;;2.97;2.78;;;;;;;10.91;64.28;99793.63;4121461;28;20206;-53
2022/04/16 08:09:49;;;;;;;2.60;2.40;;;;;;;10.88;64.25;99795.16;4109752;28;20210;-54
2022/04/16 08:11:51;;;;;;;1.70;1.60;;;;;;;10.82;63.69;99794.09;4113839;28;20207;-53
2022/04/16 08:13:54;;;;;;;2.75;2.55;;;;;;;10.77;64.12;99792.03;4120948;28;20288;-52
2022/04/16 08:15:55;;;;;;;2.20;2.00;;;;;;;10.91;64.27;99799.09;4105583;28;20803;-54
2022/04/16 08:17:58;;;;;;;2.75;2.55;;;;;;;10.95;64.40;99814.03;4107244;28;20285;-54
2022/04/16 08:19:59;;;;;;;1.70;1.60;;;;;;;11.06;63.41;99810.63;4106390;28;20207;-52
2022/04/16 08:22:06;;;;;;;1.70;1.60;;;;;;;10.96;62.99;99810.25;4119665;28;20210;-53
2022/04/16 08:24:28;;;;;;;3.03;2.83;;;;;;;11.05;62.53;99808.09;4107425;28;20227;-52
2022/04/16 08:26:31;;;;;;;2.55;2.35;;;;;;;11.02;62.53;99814.84;4123693;28;20905;-52
2022/04/16 08:28:33;;;;;;;3.10;1.70;;;;;;;10.85;61.35;99810.94;4113891;28;20207;-53
2022/04/16 08:30:35;;;;;;;2.17;2.08;;;;;;;10.82;61.55;99816.00;4105588;28;20214;-52
2022/04/16 08:32:38;;;;;;;2.47;1.27;;;;;;;10.87;61.13;99809.91;4107469;28;20210;-52
2022/04/16 08:34:40;;;;;;;1.50;1.40;;;;;;;11.06;60.97;99816.09;4111867;28;20226;-52
2022/04/16 08:36:41;;;;;;;4.50;1.85;;;;;;;11.24;61.30;99810.66;4104443;28;20211;-53
2022/04/16 08:38:43;;;;;;;2.03;1.92;;;;;;;11.28;60.47;99808.31;4106467;28;20240;-57
2022/04/16 08:40:45;;;;;;;1.35;1.00;;;;;;;11.30;59.63;99807.03;4105774;28;20207;-54
2022/04/16 08:42:51;;;;;;;1.40;1.30;;;;;;;11.35;59.44;99812.69;4095319;28;20291;-52
2022/04/16 08:44:53;;;;;;;1.27;1.27;;;;;;;11.35;59.67;99809.09;4112586;28;20322;-52
2022/04/16 08:46:55;;;;;;;1.73;1.63;;;;;;;11.43;60.10;99817.88;4103812;28;20637;-54
2022/04/16 08:48:58;;;;;;;1.52;1.15;;;;;;;11.28;59.79;99806.44;4107526;28;20211;-54
2022/04/16 08:51:00;;;;;;;1.73;1.63;;;;;;;11.35;59.12;99815.44;4117469;28;20265;-53
2022/04/16 08:53:02;;;;;;;1.52;1.42;;;;;;;11.34;58.89;99813.75;4103768;28;20680;-55
2022/04/16 08:55:09;;;;;;;1.73;1.60;;;;;;;11.35;59.42;99804.47;4104474;28;20233;-53
2022/04/16 08:57:10;;;;;;;1.92;1.35;;;;;;;11.97;58.64;99808.97;4103886;28;20616;-55
2022/04/16 08:59:12;;;;;;;3.95;1.95;;;;;;;12.58;58.02;99802.28;4107515;28;20211;-51
2022/04/16 09:01:14;;;;;;;1.20;1.10;;;;;;;12.26;56.45;99809.06;4105903;28;20293;-53
2022/04/16 09:03:15;;;;;;;1.65;1.30;;;;;;;12.32;58.03;99805.41;4104221;28;20273;-51
2022/04/16 09:05:18;;;;;;;0.90;0.90;;;;;;;12.49;57.65;99803.69;4104432;28;20231;-52
2022/04/16 09:07:20;;;;;;;4.57;1.13;;;;;;;12.35;56.52;99813.16;4109108;28;20207;-51
2022/04/16 09:09:22;;;;;;;1.75;1.65;;;;;;;12.11;56.03;99811.31;4119188;28;20210;-53
2022/04/16 09:11:24;;;;;;;1.27;1.20;;;;;;;12.03;54.69;99808.91;4106329;28;20674;-52
2022/04/16 09:13:25;;;;;;;1.70;1.00;;;;;;;11.76;55.74;99810.25;4103843;28;20664;-52
2022/04/16 09:15:28;;;;;;;1.17;1.00;;;;;;;11.79;55.22;99809.81;4102228;28;20314;-52
2022/04/16 09:17:32;;;;;;;1.00;0.90;;;;;;;12.25;54.49;99821.09;4120239;28;20213;-52
2022/04/16 09:19:34;;;;;;;0.80;0.80;;;;;;;12.31;54.13;99817.44;4103450;28;20688;-52
2022/04/16 09:21:36;;;;;;;1.05;1.05;;;;;;;12.10;53.94;99823.38;4103336;28;20678;-51
2022/04/16 09:23:39;;;;;;;0.90;0.90;;;;;;;11.84;53.80;99826.41;4109523;28;20744;-53
2022/04/16 09:25:42;;;;;;;0.90;0.90;;;;;;;11.74;54.51;99831.56;4087402;28;20609;-51
2022/04/16 09:27:47;;;;;;;0.70;0.70;;;;;;;11.78;54.24;99834.69;4104929;28;20237;-51
2022/04/16 09:29:48;;;;;;;0.98;0.98;;;;;;;11.81;53.51;99821.38;4105615;28;20203;-51
2022/04/16 09:31:51;;;;;;;0.60;0.60;;;;;;;11.75;52.98;99827.75;4101599;28;20214;-53
2022/04/16 09:33:53;;;;;;;0.98;0.98;;;;;;;12.15;53.37;99828.19;4090474;28;20199;-51
2022/04/16 09:35:55;;;;;;;0.85;0.85;;;;;;;12.46;54.05;99820.66;4106743;28;20206;-55
2022/04/16 09:37:59;;;;;;;1.63;1.00;;;;;;;12.28;53.47;99823.38;4121232;28;20230;-53
2022/04/16 09:40:13;;;;;;;0.85;0.85;;;;;;;12.09;53.87;99829.94;4104596;28;20774;-51
2022/04/16 09:42:27;;;;;;;1.05;0.95;;;;;;;12.13;53.83;99825.69;4103064;28;20577;-53
2022/04/16 09:44:29;;;;;;;2.25;1.45;;;;;;;12.27;53.99;99835.44;4105015;28;20318;-53
2022/04/16 09:46:31;;;;;;;1.20;1.05;;;;;;;12.35;53.35;99826.91;4103165;28;20334;-51
2022/04/16 09:48:34;;;;;;;1.13;1.08;;;;;;;12.34;52.55;99827.97;4102868;28;20710;-54
2022/04/16 09:50:37;;;;;;;0.90;0.80;;;;;;;12.49;53.37;99825.66;4087463;28;20204;-52
2022/04/16 09:52:40;;;;;;;1.10;1.00;;;;;;;12.43;52.69;99832.06;4105568;28;20209;-51